Dallas, Pennsylvania
Current Conditions -  °F | °C
As of 10:54 AM on Sunday 23 Nov 2014 (Local Time) from KAVP Reporting Station
Overcast Overcast  
Wind Chill: 41°   Ceiling: 8000
Heat Index: 45°   Visibility: 10mi
Dew Point: 20°   Wind: 8mph
Humidity: 37%   Direction: 230°SW
Pressure: 30.16"   Gusts: NA
Location:  41.33°N, 75.97°W
Report Text: KAVP 231554Z 23007KT 10SM OVC080 07/M07 A3016 RMK AO2 SLP218 T00721067
Loading
Personal Weather Stations






























Interactive Weather Map New forecast layout! Learn more

10-Day Weather Forecast

Advertisements
Track Severe Weather on mobile